グアヤキル の空港の天気 - METARとTAF

グアヤキル空港 ( SEGU / GYE ) - エクアドル グアヤキル
飛行場実況気象(Metar)
観測時間01/16 14:00 ECT (01/16 19:00 UTC)
風向・風速南東 2m/s
視程10km以上
天気現象
少しの雲 雲底高度 610m
全天の4割程度の雲 雲底高度 910m
全天の8割程度の雲 雲底高度 3050m
気温30℃
湿度59%
気圧1010hPa
METARSEGU 161900Z 13004KT 9999 FEW020 SCT030 BKN100 30/21 Q1010 NOSIG RMK A2984
過去の天気等 Google飛行場航空写真 Wunderground天気予報

過去48時間のMETAR

飛行場予報(TAF)
発表時間: 1/16 11:55 ECT (1/16 16:55 UTC)
予報対象時間: 16日13時 ECT ~ 17日13時 ECT
風向・風速東北東 2m/s
視程10km以上
少しの雲 雲底高度 460m
全天の4割程度の雲 雲底高度 790m
全天の8割程度の雲 雲底高度 3050m
16日17時 ECT ~ 16日18時 ECT に徐々に
風向・風速南 3m/s
16日18時 ECT ~ 16日21時 ECT に一時的に
天気現象しゅう雨
全天の8割程度の雲 雲底高度 790m
全天の8割程度の雲 雲底高度 3050m
16日21時 ECT ~ 16日23時 ECT に徐々に
少しの雲 雲底高度 300m
全天の8割程度の雲 雲底高度 700m
全天の8割程度の雲 雲底高度 3050m
17日7時 ECT ~ 17日9時 ECT に徐々に
風向・風速東北東 3m/s
少しの雲 雲底高度 300m
全天の4割程度の雲 雲底高度 610m
SEGU 161655Z 1618/1718 06004KT 9999 FEW015 SCT026 BKN100
BECMG 1622/1623 18006KT
TEMPO 1623/1702 SHRA BKN026 BKN100
BECMG 1702/1704 FEW010 BKN023 BKN100
BECMG 1712/1714 07006KT FEW010 SCT020 TX29/1620Z TN24/1710Z